Time;durP1;ratioP1;P1;durP2;ratioP2;P2;SDS_P1;SDS_P2;PMS_P1;PMS_P2;Temp;Humidity;BMP_temperature;BMP_pressure;BME280_temperature;BME280_humidity;BME280_pressure;Samples;Min_cycle;Max_cycle;Signal;HPM_P1;HPM_P2
2022/11/10 00:00:04;;;;;;;3.03;1.00;;;13.30;96.90;;;;;;5021980;28;20033;-78
2022/11/10 00:02:30;;;;;;;3.70;1.00;;;13.30;96.90;;;;;;5076336;28;20028;-79
2022/11/10 00:04:56;;;;;;;1.98;1.00;;;13.30;96.90;;;;;;5055886;28;20020;-80
2022/11/10 00:07:26;;;;;;;4.60;1.17;;;13.20;96.80;;;;;;5056494;28;20024;-79
2022/11/10 00:09:51;;;;;;;3.25;1.27;;;13.20;96.70;;;;;;5067041;28;20568;-79
2022/11/10 00:12:18;;;;;;;3.45;1.10;;;13.20;96.90;;;;;;5052245;28;20339;-79
2022/11/10 00:17:28;;;;;;;3.35;1.17;;;13.10;96.90;;;;;;5036969;28;20028;-79
2022/11/10 00:19:54;;;;;;;3.63;0.95;;;13.20;97.00;;;;;;5071437;28;20028;-80
2022/11/10 00:22:20;;;;;;;5.03;1.13;;;13.20;97.00;;;;;;5069324;28;20553;-79
2022/11/10 00:24:45;;;;;;;6.30;1.20;;;13.10;97.00;;;;;;5071998;28;20024;-79
2022/11/10 00:27:13;;;;;;;4.23;1.20;;;13.10;97.00;;;;;;5054774;28;20021;-80
2022/11/10 00:29:39;;;;;;;3.95;1.08;;;13.00;97.00;;;;;;5046179;28;20312;-79
2022/11/10 00:32:05;;;;;;;2.88;0.90;;;13.10;97.10;;;;;;5048346;28;20098;-79
2022/11/10 00:34:31;;;;;;;3.42;0.90;;;13.10;97.10;;;;;;5060812;28;20024;-80
2022/11/10 00:36:56;;;;;;;5.63;1.10;;;13.00;97.10;;;;;;5063241;28;20044;-79
2022/11/10 00:39:22;;;;;;;3.17;1.08;;;13.00;97.10;;;;;;5072358;28;20031;-78
2022/11/10 00:41:48;;;;;;;2.30;0.80;;;13.00;97.10;;;;;;5056666;28;20032;-78
2022/11/10 00:44:13;;;;;;;2.93;1.23;;;13.00;97.10;;;;;;5060327;28;20032;-79
2022/11/10 00:46:40;;;;;;;3.25;0.90;;;12.90;97.10;;;;;;5059010;28;20412;-80
2022/11/10 00:49:06;;;;;;;5.20;1.10;;;12.90;97.10;;;;;;5044992;28;20031;-79
2022/11/10 00:51:31;;;;;;;2.50;0.90;;;12.90;97.20;;;;;;5057387;28;20029;-79
2022/11/10 00:53:57;;;;;;;3.17;1.00;;;12.90;97.20;;;;;;5056214;28;20048;-79
2022/11/10 00:56:24;;;;;;;3.63;1.00;;;12.90;97.20;;;;;;5055154;28;20029;-79
2022/11/10 00:58:49;;;;;;;2.63;1.10;;;12.90;97.20;;;;;;5048554;28;20056;-80
2022/11/10 01:01:17;;;;;;;2.47;0.77;;;12.90;97.20;;;;;;5058820;28;20024;-78
2022/11/10 01:03:42;;;;;;;4.72;1.10;;;12.90;97.20;;;;;;5024815;28;20024;-79
2022/11/10 01:06:11;;;;;;;4.00;1.00;;;12.80;97.30;;;;;;5060673;28;20423;-79
2022/11/10 01:08:37;;;;;;;2.73;1.20;;;12.80;97.30;;;;;;5065979;28;20802;-79
2022/11/10 01:11:08;;;;;;;5.78;1.20;;;12.80;97.40;;;;;;5070465;28;20110;-79
2022/11/10 01:13:35;;;;;;;2.47;0.90;;;12.80;97.30;;;;;;5051853;28;20282;-80
2022/11/10 01:16:15;;;;;;;5.00;1.15;;;12.80;97.40;;;;;;5067092;28;20078;-79
2022/11/10 01:18:41;;;;;;;2.33;1.00;;;12.80;97.30;;;;;;5034889;28;20149;-79
2022/11/10 01:21:08;;;;;;;6.63;1.08;;;12.80;97.50;;;;;;5053079;28;20027;-80
2022/11/10 01:23:34;;;;;;;4.15;0.93;;;12.80;97.60;;;;;;5066516;28;20390;-81
2022/11/10 01:26:03;;;;;;;3.03;0.90;;;12.80;97.60;;;;;;5069520;28;20060;-79
2022/11/10 01:28:29;;;;;;;3.80;1.00;;;12.80;97.70;;;;;;5039880;28;20028;-81
2022/11/10 01:31:10;;;;;;;4.80;1.20;;;12.80;97.80;;;;;;5054998;28;20027;-81
2022/11/10 01:33:36;;;;;;;3.72;1.20;;;12.80;97.40;;;;;;5027096;28;25975;-79
2022/11/10 01:36:03;;;;;;;5.65;1.23;;;12.80;97.70;;;;;;5062652;28;20020;-81
2022/11/10 01:38:31;;;;;;;6.60;1.27;;;12.80;97.60;;;;;;5069208;28;20035;-78
2022/11/10 01:40:57;;;;;;;3.67;1.10;;;12.80;97.50;;;;;;5073300;28;20480;-78
2022/11/10 01:43:24;;;;;;;4.07;1.25;;;12.80;97.50;;;;;;5033280;28;20085;-80
2022/11/10 01:45:57;;;;;;;3.65;1.00;;;12.70;97.50;;;;;;5063899;28;20032;-79
2022/11/10 01:48:41;;;;;;;3.88;1.08;;;12.70;97.40;;;;;;5027056;28;20044;-78
2022/11/10 01:51:25;;;;;;;3.05;0.95;;;12.70;97.40;;;;;;5054412;28;20028;-80
2022/11/10 01:54:00;;;;;;;2.80;1.00;;;12.70;97.40;;;;;;5060911;28;20051;-79
2022/11/10 01:56:28;;;;;;;3.13;1.00;;;12.60;97.40;;;;;;5066805;28;20028;-79
2022/11/10 01:58:58;;;;;;;2.95;1.00;;;12.60;97.50;;;;;;5057667;28;20016;-78
2022/11/10 02:01:24;;;;;;;3.25;1.10;;;12.60;97.50;;;;;;5049013;28;20111;-79
2022/11/10 02:03:56;;;;;;;4.32;1.20;;;12.60;97.60;;;;;;5059175;28;20546;-78
2022/11/10 02:06:28;;;;;;;4.20;1.20;;;12.60;97.60;;;;;;5046594;28;20060;-79
2022/11/10 02:08:55;;;;;;;5.07;1.10;;;12.50;97.50;;;;;;5060082;28;20051;-79
2022/11/10 02:11:22;;;;;;;2.80;1.10;;;12.50;97.60;;;;;;5080746;28;20410;-79
2022/11/10 02:13:48;;;;;;;2.67;1.00;;;12.50;97.70;;;;;;5041828;28;20231;-78
2022/11/10 02:16:14;;;;;;;2.70;1.10;;;12.50;97.70;;;;;;5065276;28;20477;-78
2022/11/10 02:18:39;;;;;;;3.43;1.00;;;12.40;97.70;;;;;;5069060;28;20092;-80
2022/11/10 02:21:07;;;;;;;3.63;1.20;;;12.40;97.80;;;;;;5041134;28;20025;-79
2022/11/10 02:23:36;;;;;;;2.10;0.98;;;12.40;97.70;;;;;;5060816;28;20020;-80
2022/11/10 02:26:04;;;;;;;5.97;1.07;;;12.40;97.70;;;;;;5057776;28;20040;-79
2022/11/10 02:28:35;;;;;;;3.25;1.10;;;12.40;97.80;;;;;;5063846;28;20036;-79
2022/11/10 02:31:01;;;;;;;3.42;1.17;;;12.40;97.80;;;;;;5038142;28;20028;-79
2022/11/10 02:33:26;;;;;;;2.50;0.90;;;12.40;97.80;;;;;;5060564;28;20520;-78
2022/11/10 02:35:52;;;;;;;4.97;1.13;;;12.30;97.80;;;;;;5060335;28;20119;-79
2022/11/10 02:38:18;;;;;;;3.42;1.00;;;12.30;97.90;;;;;;5050788;28;20119;-80
2022/11/10 02:40:44;;;;;;;2.67;0.87;;;12.30;97.90;;;;;;5043879;28;20218;-79
2022/11/10 02:43:12;;;;;;;2.63;0.98;;;12.30;97.90;;;;;;5053259;28;20020;-79
2022/11/10 02:45:44;;;;;;;5.50;1.23;;;12.30;97.90;;;;;;5036409;28;20017;-78
2022/11/10 02:48:14;;;;;;;5.33;1.20;;;12.30;97.90;;;;;;5069862;28;20023;-79
2022/11/10 02:50:40;;;;;;;2.63;1.00;;;12.20;97.90;;;;;;5056155;28;20699;-78
2022/11/10 02:53:06;;;;;;;4.30;1.10;;;12.30;98.00;;;;;;5033202;28;20020;-78
2022/11/10 02:55:32;;;;;;;4.63;1.30;;;12.20;98.20;;;;;;5060812;28;20107;-78
2022/11/10 02:57:58;;;;;;;4.10;0.90;;;12.20;97.90;;;;;;5070669;28;20071;-79
2022/11/10 03:00:24;;;;;;;3.28;1.00;;;12.20;98.00;;;;;;5060864;28;20032;-79
2022/11/10 03:03:04;;;;;;;4.63;1.17;;;12.20;98.10;;;;;;5066278;28;20531;-78
2022/11/10 03:05:30;;;;;;;3.22;0.90;;;12.20;98.10;;;;;;5056975;28;20024;-78
2022/11/10 03:07:58;;;;;;;3.20;0.90;;;12.20;98.20;;;;;;5044455;28;20020;-78
2022/11/10 03:10:25;;;;;;;3.43;0.80;;;12.20;98.20;;;;;;5065192;28;20044;-78
2022/11/10 03:12:58;;;;;;;3.47;0.90;;;12.20;98.40;;;;;;5048664;28;20017;-78
2022/11/10 03:15:24;;;;;;;2.78;0.90;;;12.20;98.30;;;;;;5064605;28;20392;-78
2022/11/10 03:17:50;;;;;;;3.50;0.90;;;12.20;98.30;;;;;;5035922;28;20546;-79
2022/11/10 03:20:16;;;;;;;3.63;0.80;;;12.20;98.30;;;;;;5070776;28;20099;-78
2022/11/10 03:22:42;;;;;;;3.85;1.05;;;12.20;98.30;;;;;;5029280;28;20035;-78
2022/11/10 03:25:09;;;;;;;2.65;0.80;;;12.20;98.30;;;;;;5071897;28;20028;-79
2022/11/10 03:27:34;;;;;;;3.03;0.80;;;12.10;98.30;;;;;;5062045;28;20121;-77
2022/11/10 03:30:00;;;;;;;4.47;0.98;;;12.10;98.40;;;;;;5075848;28;20036;-80
2022/11/10 03:32:26;;;;;;;4.50;1.30;;;12.10;98.40;;;;;;5037141;28;20043;-79
2022/11/10 03:34:51;;;;;;;3.25;0.98;;;12.20;98.50;;;;;;5054917;28;20342;-79
2022/11/10 03:37:17;;;;;;;4.13;1.07;;;12.20;98.50;;;;;;5072163;28;20026;-78
2022/11/10 03:39:42;;;;;;;3.55;1.00;;;12.20;98.60;;;;;;5040694;28;20062;-78
2022/11/10 03:42:08;;;;;;;2.70;0.97;;;12.20;98.60;;;;;;5061887;28;20038;-78
2022/11/10 03:44:34;;;;;;;3.72;1.00;;;12.10;98.60;;;;;;5058523;28;20111;-78
2022/11/10 03:47:01;;;;;;;4.97;1.10;;;12.10;98.60;;;;;;5068455;28;20098;-79
2022/11/10 03:49:27;;;;;;;4.93;1.00;;;12.20;98.60;;;;;;5063399;28;20040;-78
2022/11/10 03:51:53;;;;;;;3.20;1.10;;;12.10;98.60;;;;;;5072265;28;20031;-77
2022/11/10 03:54:18;;;;;;;5.55;1.17;;;12.10;98.60;;;;;;5037046;28;20110;-78
2022/11/10 03:56:44;;;;;;;2.43;0.90;;;12.10;98.70;;;;;;5061763;28;20039;-77
2022/11/10 03:59:10;;;;;;;2.95;0.90;;;12.10;98.70;;;;;;5065425;28;20020;-78
2022/11/10 04:01:35;;;;;;;5.13;1.20;;;12.10;98.80;;;;;;5062369;28;20117;-79
2022/11/10 04:04:01;;;;;;;3.75;0.95;;;12.20;99.00;;;;;;5054251;28;20095;-80
2022/11/10 04:09:11;;;;;;;2.30;0.80;;;12.20;99.20;;;;;;5058186;28;20023;-79
2022/11/10 04:17:05;;;;;;;4.75;1.10;;;12.30;99.40;;;;;;5069302;28;20451;-79
2022/11/10 04:19:31;;;;;;;5.80;1.00;;;12.30;99.40;;;;;;5051386;28;21019;-79
2022/11/10 04:21:57;;;;;;;5.10;1.42;;;12.40;99.40;;;;;;5074823;28;20063;-79
2022/11/10 04:24:22;;;;;;;2.40;0.90;;;12.40;99.20;;;;;;5029759;28;20039;-79
2022/11/10 04:26:48;;;;;;;5.05;1.23;;;12.40;99.20;;;;;;5045904;28;20032;-79
2022/11/10 04:29:18;;;;;;;4.87;1.00;;;12.40;99.50;;;;;;5065645;28;20523;-78
2022/11/10 04:31:45;;;;;;;3.50;0.90;;;12.30;99.00;;;;;;5059140;28;20025;-78
2022/11/10 04:34:13;;;;;;;3.05;0.82;;;12.40;99.10;;;;;;5056933;28;20031;-78
2022/11/10 04:36:41;;;;;;;4.60;1.10;;;12.40;99.00;;;;;;5075243;28;20462;-78
2022/11/10 04:39:08;;;;;;;3.87;0.80;;;12.40;99.00;;;;;;5039728;28;20109;-77
2022/11/10 04:41:34;;;;;;;3.53;1.02;;;12.40;98.90;;;;;;5056026;28;20421;-79
2022/11/10 04:44:00;;;;;;;3.15;1.02;;;12.40;98.90;;;;;;5051759;28;20173;-79
2022/11/10 04:46:31;;;;;;;4.25;0.90;;;12.40;98.90;;;;;;5072154;28;20295;-79
2022/11/10 04:48:57;;;;;;;3.83;0.90;;;12.40;98.90;;;;;;5066964;28;20020;-78
2022/11/10 04:51:26;;;;;;;4.13;0.90;;;12.30;98.90;;;;;;5036737;28;20090;-78
2022/11/10 04:53:52;;;;;;;2.95;0.70;;;12.30;98.80;;;;;;5070734;28;20532;-78
2022/11/10 04:56:20;;;;;;;4.38;1.00;;;12.30;98.80;;;;;;5029088;28;20126;-79
2022/11/10 04:58:46;;;;;;;4.90;1.10;;;12.30;98.80;;;;;;5072759;28;20032;-78
2022/11/10 05:01:18;;;;;;;2.30;0.80;;;12.30;98.80;;;;;;5054781;28;20059;-78
2022/11/10 05:03:44;;;;;;;2.63;0.98;;;12.30;98.70;;;;;;5067052;28;20419;-78
2022/11/10 05:06:10;;;;;;;2.95;0.98;;;12.20;98.70;;;;;;5054139;28;20027;-79
2022/11/10 05:08:37;;;;;;;2.63;0.90;;;12.20;98.70;;;;;;5065762;28;20386;-78
2022/11/10 05:11:03;;;;;;;3.83;0.80;;;12.20;98.60;;;;;;5031834;28;20267;-79
2022/11/10 05:13:29;;;;;;;2.45;0.93;;;12.20;98.60;;;;;;5065823;28;20192;-78
2022/11/10 05:15:56;;;;;;;2.95;1.00;;;12.20;98.70;;;;;;5062214;28;20024;-78
2022/11/10 05:18:21;;;;;;;4.60;1.00;;;12.10;98.70;;;;;;5068692;28;20033;-79
2022/11/10 05:20:47;;;;;;;2.60;0.90;;;12.10;98.70;;;;;;5075878;28;20475;-80
2022/11/10 05:25:57;;;;;;;4.10;0.85;;;12.10;98.90;;;;;;5052614;28;20035;-78
2022/11/10 05:28:23;;;;;;;3.92;1.00;;;12.00;98.90;;;;;;5051919;28;20028;-80
2022/11/10 05:30:48;;;;;;;3.97;1.10;;;12.00;98.90;;;;;;5069226;28;20033;-78
2022/11/10 05:33:14;;;;;;;4.07;1.17;;;12.00;98.90;;;;;;5063923;28;20016;-80
2022/11/10 05:35:40;;;;;;;4.37;1.10;;;12.00;98.90;;;;;;5065699;28;20488;-80
2022/11/10 05:38:05;;;;;;;6.00;1.23;;;12.00;98.90;;;;;;5038954;28;20687;-80
2022/11/10 05:40:32;;;;;;;3.57;1.10;;;12.00;98.90;;;;;;5072089;28;20114;-80
2022/11/10 05:42:58;;;;;;;2.80;1.00;;;12.00;98.90;;;;;;5036072;28;20028;-79
2022/11/10 05:45:26;;;;;;;3.45;1.08;;;11.90;98.90;;;;;;5066573;28;20129;-78
2022/11/10 05:47:52;;;;;;;3.13;0.93;;;11.90;98.90;;;;;;5056643;28;20618;-79
2022/11/10 05:50:20;;;;;;;3.47;0.90;;;11.90;99.00;;;;;;5078806;28;20024;-79
2022/11/10 05:52:48;;;;;;;2.13;0.98;;;11.90;98.90;;;;;;5033507;28;20519;-78
2022/11/10 05:55:14;;;;;;;4.40;0.90;;;11.90;98.90;;;;;;5056038;28;20035;-79
2022/11/10 05:57:48;;;;;;;4.78;1.23;;;11.90;98.90;;;;;;5030745;28;20489;-79
2022/11/10 06:00:16;;;;;;;3.47;1.10;;;11.90;98.80;;;;;;5058396;28;20397;-79
2022/11/10 06:02:42;;;;;;;4.13;1.17;;;11.90;99.00;;;;;;5022595;28;20024;-79
2022/11/10 06:05:09;;;;;;;3.38;1.08;;;11.80;98.90;;;;;;5050495;28;20040;-79
2022/11/10 06:07:34;;;;;;;2.55;0.95;;;11.80;99.00;;;;;;5051367;28;20025;-78
2022/11/10 06:10:00;;;;;;;3.33;1.10;;;11.80;99.00;;;;;;5058069;28;20035;-78
2022/11/10 06:12:29;;;;;;;3.03;0.90;;;11.80;99.00;;;;;;5059687;28;20051;-78
2022/11/10 06:14:58;;;;;;;3.13;0.90;;;11.80;98.90;;;;;;5042741;28;20032;-78
2022/11/10 06:17:24;;;;;;;3.45;1.00;;;11.80;98.90;;;;;;5047785;28;20037;-80
2022/11/10 06:19:50;;;;;;;3.75;0.93;;;11.80;98.90;;;;;;5070495;28;20016;-79
2022/11/10 06:22:16;;;;;;;3.27;1.07;;;11.80;98.90;;;;;;5062616;28;20016;-80
2022/11/10 06:24:41;;;;;;;3.70;1.02;;;11.70;98.90;;;;;;5031677;28;20017;-78
2022/11/10 06:27:07;;;;;;;3.03;0.90;;;11.70;98.90;;;;;;5053243;28;20654;-79
2022/11/10 06:29:33;;;;;;;5.70;1.40;;;11.70;98.90;;;;;;5024008;28;20430;-79
2022/11/10 06:31:58;;;;;;;3.80;0.90;;;11.70;99.00;;;;;;5058896;28;20078;-79
2022/11/10 06:34:24;;;;;;;3.97;1.10;;;11.70;99.30;;;;;;5059259;28;20351;-79
2022/11/10 06:36:49;;;;;;;2.35;1.30;;;11.60;99.00;;;;;;5054541;28;20075;-78
2022/11/10 06:39:15;;;;;;;4.03;1.00;;;11.70;99.10;;;;;;5066939;27;20095;-79
2022/11/10 06:41:41;;;;;;;2.33;0.90;;;11.60;99.10;;;;;;5071193;28;20043;-80
2022/11/10 06:44:06;;;;;;;2.90;1.00;;;11.70;99.20;;;;;;5029197;28;20622;-79
2022/11/10 06:46:32;;;;;;;3.20;0.98;;;11.60;99.20;;;;;;5049446;28;20020;-80
2022/11/10 06:48:58;;;;;;;3.83;1.20;;;11.60;99.30;;;;;;5055779;28;20040;-79
2022/11/10 06:51:23;;;;;;;3.20;1.17;;;11.60;99.30;;;;;;5043237;28;20036;-79
2022/11/10 06:53:49;;;;;;;3.30;0.90;;;11.60;99.40;;;;;;5062554;28;20051;-78
2022/11/10 06:56:14;;;;;;;5.90;1.30;;;11.60;99.40;;;;;;5051053;28;20572;-78
2022/11/10 06:58:40;;;;;;;2.95;0.95;;;11.60;99.50;;;;;;5064945;28;20026;-81
2022/11/10 07:01:06;;;;;;;4.70;1.17;;;11.60;99.50;;;;;;5037788;28;20229;-81
2022/11/10 07:03:32;;;;;;;4.47;1.08;;;11.60;99.50;;;;;;5054748;28;20390;-81
2022/11/10 07:05:57;;;;;;;3.37;1.20;;;11.60;99.30;;;;;;5032334;28;20107;-80
2022/11/10 07:08:23;;;;;;;3.67;1.20;;;11.60;99.60;;;;;;5056660;28;20288;-79
2022/11/10 07:10:54;;;;;;;6.03;1.20;;;11.60;99.60;;;;;;5035179;28;20025;-80
2022/11/10 07:13:21;;;;;;;6.67;1.90;;;11.70;99.70;;;;;;5050021;28;20028;-79
2022/11/10 07:15:46;;;;;;;3.63;1.30;;;11.70;99.80;;;;;;5019164;28;20028;-80
2022/11/10 07:18:13;;;;;;;5.03;1.33;;;11.70;99.80;;;;;;5047152;28;20239;-79
2022/11/10 07:20:38;;;;;;;4.53;1.20;;;11.70;99.90;;;;;;5038235;28;20042;-79
2022/11/10 07:23:06;;;;;;;2.03;0.97;;;11.70;99.90;;;;;;5052825;28;20231;-80
2022/11/10 07:25:34;;;;;;;4.28;1.20;;;11.80;99.90;;;;;;5045218;28;20067;-78
2022/11/10 07:28:04;;;;;;;5.03;1.30;;;11.70;99.90;;;;;;5012346;28;20035;-81
2022/11/10 07:30:32;;;;;;;3.22;1.38;;;11.90;99.90;;;;;;5056709;28;20025;-79
2022/11/10 07:33:01;;;;;;;3.88;1.30;;;11.90;99.90;;;;;;5041962;28;20028;-79
2022/11/10 07:35:27;;;;;;;3.53;1.33;;;12.00;99.90;;;;;;5069180;28;20047;-79
2022/11/10 07:37:54;;;;;;;4.15;1.85;;;12.10;99.90;;;;;;5054679;28;20363;-79
2022/11/10 07:40:21;;;;;;;3.60;1.30;;;12.10;99.90;;;;;;5045926;28;20024;-79
2022/11/10 07:42:47;;;;;;;3.67;1.13;;;12.20;99.90;;;;;;5050450;28;20038;-79
2022/11/10 07:45:12;;;;;;;4.97;1.27;;;12.20;99.90;;;;;;5038945;28;20037;-79
2022/11/10 07:47:38;;;;;;;4.18;1.40;;;12.30;99.90;;;;;;5027751;28;20475;-79
2022/11/10 07:50:04;;;;;;;6.27;1.63;;;12.30;99.90;;;;;;5060879;28;20023;-81
2022/11/10 07:52:29;;;;;;;3.35;1.05;;;12.30;99.90;;;;;;5043353;28;20170;-79
2022/11/10 07:54:56;;;;;;;3.85;1.20;;;12.40;99.90;;;;;;5047270;28;20045;-78
2022/11/10 07:57:23;;;;;;;4.57;1.10;;;12.40;99.90;;;;;;5046396;28;20036;-80
2022/11/10 07:59:49;;;;;;;3.55;1.23;;;12.40;99.90;;;;;;5068880;28;20222;-80
2022/11/10 08:02:15;;;;;;;5.30;1.30;;;12.50;99.90;;;;;;5049353;28;20129;-80
2022/11/10 08:04:40;;;;;;;4.70;1.63;;;12.40;99.90;;;;;;5040117;28;20020;-79
2022/11/10 08:07:06;;;;;;;4.23;1.13;;;12.50;99.90;;;;;;5053044;28;20399;-78
2022/11/10 08:09:32;;;;;;;3.30;1.10;;;12.50;99.90;;;;;;5068615;28;20099;-81
2022/11/10 08:11:57;;;;;;;3.05;1.08;;;12.60;99.90;;;;;;5058999;28;20785;-78
2022/11/10 08:14:23;;;;;;;4.83;1.20;;;12.60;99.90;;;;;;5063341;28;20217;-78
2022/11/10 08:16:49;;;;;;;2.40;1.10;;;12.60;99.90;;;;;;5062469;28;20074;-80
2022/11/10 08:19:15;;;;;;;2.70;1.10;;;12.60;99.90;;;;;;5027222;28;25930;-79
2022/11/10 08:21:40;;;;;;;3.17;1.10;;;12.70;99.90;;;;;;5053777;28;20480;-80
2022/11/10 08:24:06;;;;;;;6.70;1.43;;;12.70;99.90;;;;;;5062568;28;20308;-78
2022/11/10 08:26:32;;;;;;;2.90;1.05;;;12.70;99.90;;;;;;5055081;28;20217;-79
2022/11/10 08:28:58;;;;;;;6.37;1.37;;;12.80;99.90;;;;;;5033408;28;20105;-80
2022/11/10 08:31:23;;;;;;;5.90;1.65;;;12.80;99.90;;;;;;5074385;28;20380;-79
2022/11/10 08:33:49;;;;;;;5.10;1.50;;;12.90;99.90;;;;;;5056655;28;20073;-79
2022/11/10 08:36:15;;;;;;;2.85;1.00;;;12.90;99.90;;;;;;5040191;28;20095;-79
2022/11/10 08:38:41;;;;;;;3.50;1.13;;;13.00;99.90;;;;;;5043083;28;20496;-79
2022/11/10 08:41:06;;;;;;;5.63;1.25;;;13.00;99.90;;;;;;5078534;28;20103;-79
2022/11/10 08:43:32;;;;;;;4.10;1.10;;;13.10;99.90;;;;;;5056878;28;20024;-80
2022/11/10 08:45:57;;;;;;;4.30;1.10;;;13.10;99.90;;;;;;5067075;28;20952;-80
2022/11/10 08:48:24;;;;;;;5.17;1.50;;;13.20;99.90;;;;;;5052698;28;20024;-79
2022/11/10 08:50:50;;;;;;;3.72;1.42;;;13.30;99.90;;;;;;5045185;28;20618;-79
2022/11/10 08:53:22;;;;;;;7.00;1.77;;;13.30;99.90;;;;;;5071506;28;20518;-79
2022/11/10 08:55:48;;;;;;;2.70;1.10;;;13.40;99.90;;;;;;5065626;28;20135;-78
2022/11/10 08:58:16;;;;;;;5.88;1.48;;;13.40;99.90;;;;;;5075448;28;20066;-79
2022/11/10 09:00:42;;;;;;;6.37;1.57;;;13.50;99.90;;;;;;5053022;28;20503;-80
2022/11/10 09:03:17;;;;;;;5.20;1.30;;;13.60;99.90;;;;;;5059776;28;20024;-80
2022/11/10 09:05:45;;;;;;;4.80;1.20;;;13.70;99.90;;;;;;5063415;28;20267;-78
2022/11/10 09:08:10;;;;;;;5.53;1.10;;;13.80;99.90;;;;;;5045723;28;20032;-79
2022/11/10 09:10:39;;;;;;;6.25;1.30;;;13.80;99.90;;;;;;5046657;28;20512;-78
2022/11/10 09:13:05;;;;;;;6.93;1.00;;;14.00;99.90;;;;;;5068972;28;20118;-80
2022/11/10 09:15:33;;;;;;;4.75;1.10;;;14.10;99.90;;;;;;5033458;28;20740;-78
2022/11/10 09:17:59;;;;;;;2.53;1.15;;;14.40;99.90;;;;;;5057017;28;20050;-78
2022/11/10 09:20:27;;;;;;;3.97;1.10;;;14.80;99.90;;;;;;5072095;28;20017;-78
2022/11/10 09:22:53;;;;;;;5.03;1.20;;;15.20;99.90;;;;;;5053804;28;20548;-78
2022/11/10 09:25:19;;;;;;;2.92;0.88;;;15.70;99.90;;;;;;5044019;28;20141;-80
2022/11/10 09:27:45;;;;;;;5.28;1.27;;;16.20;99.90;;;;;;5064115;28;20035;-80
2022/11/10 09:30:11;;;;;;;4.77;1.20;;;16.60;99.90;;;;;;5037127;28;20027;-79
2022/11/10 09:32:36;;;;;;;8.13;1.23;;;17.20;99.90;;;;;;5052549;28;20032;-78
2022/11/10 09:35:03;;;;;;;4.15;1.20;;;17.60;99.90;;;;;;5052297;28;20044;-77
2022/11/10 09:37:29;;;;;;;3.80;1.33;;;18.10;99.90;;;;;;5051028;28;20220;-80
2022/11/10 09:39:55;;;;;;;3.75;1.25;;;18.50;99.90;;;;;;5051203;28;20040;-78
2022/11/10 09:42:26;;;;;;;3.85;1.20;;;19.00;99.90;;;;;;5061009;28;20193;-78
2022/11/10 09:45:18;;;;;;;3.47;1.00;;;19.40;99.90;;;;;;5048656;28;20040;-81
2022/11/10 09:48:01;;;;;;;5.95;1.40;;;19.90;99.90;;;;;;5062797;28;20396;-79
2022/11/10 09:50:39;;;;;;;6.10;1.20;;;20.30;99.70;;;;;;5062958;28;20450;-78
2022/11/10 09:53:12;;;;;;;3.55;1.30;;;20.60;99.80;;;;;;5049649;28;20020;-78
2022/11/10 09:55:42;;;;;;;4.28;1.23;;;20.90;98.20;;;;;;5058890;28;20316;-80
2022/11/10 09:58:11;;;;;;;4.47;1.43;;;21.10;99.20;;;;;;5058699;28;20173;-78
2022/11/10 10:00:39;;;;;;;3.45;1.20;;;21.30;99.00;;;;;;5051831;28;20024;-79
2022/11/10 10:03:05;;;;;;;3.42;1.15;;;21.50;99.20;;;;;;5071325;28;20103;-80
2022/11/10 10:05:34;;;;;;;4.07;1.20;;;21.70;99.00;;;;;;5043096;28;20491;-78
2022/11/10 10:08:14;;;;;;;3.88;1.40;;;21.90;97.60;;;;;;5051338;28;20671;-79
2022/11/10 10:10:48;;;;;;;2.77;1.57;;;22.10;98.10;;;;;;5042253;28;20021;-78
2022/11/10 10:13:19;;;;;;;2.97;1.50;;;22.30;96.80;;;;;;5069295;28;20118;-80
2022/11/10 10:16:09;;;;;;;4.88;1.50;;;22.50;97.10;;;;;;5056533;28;20040;-77
2022/11/10 10:18:43;;;;;;;3.58;1.52;;;22.70;95.60;;;;;;5065958;28;20089;-80
2022/11/10 10:21:32;;;;;;;5.65;1.70;;;22.80;96.50;;;;;;5056178;28;20215;-80
2022/11/10 10:24:01;;;;;;;5.50;1.37;;;23.00;94.60;;;;;;5063019;28;20524;-78
2022/11/10 10:26:29;;;;;;;3.60;1.63;;;23.20;96.70;;;;;;5040895;28;20024;-77
2022/11/10 10:29:00;;;;;;;4.90;1.60;;;23.40;96.40;;;;;;5046669;28;20028;-80
2022/11/10 10:31:31;;;;;;;4.18;1.50;;;23.60;96.70;;;;;;5053631;28;20040;-78
2022/11/10 10:33:57;;;;;;;5.00;1.40;;;23.80;96.70;;;;;;5072230;28;20213;-79
2022/11/10 10:36:25;;;;;;;6.00;1.90;;;24.10;96.40;;;;;;5049931;28;20115;-80
2022/11/10 10:38:55;;;;;;;3.78;1.40;;;24.20;94.90;;;;;;5073797;28;20013;-79
2022/11/10 10:41:30;;;;;;;5.25;1.27;;;24.30;94.10;;;;;;5053494;28;20025;-80
2022/11/10 10:43:59;;;;;;;2.70;1.10;;;24.40;93.80;;;;;;5055114;28;20485;-77
2022/11/10 10:46:28;;;;;;;4.00;1.45;;;24.50;94.20;;;;;;5053402;28;20020;-78
2022/11/10 10:49:24;;;;;;;4.63;1.33;;;24.60;94.80;;;;;;5065702;28;20057;-78
2022/11/10 10:52:10;;;;;;;4.45;1.40;;;24.80;92.20;;;;;;5050796;28;20036;-78
2022/11/10 10:54:38;;;;;;;4.05;1.65;;;25.00;92.60;;;;;;5080416;28;20028;-78
2022/11/10 10:57:23;;;;;;;4.40;1.30;;;25.20;94.70;;;;;;5044134;28;20043;-79
2022/11/10 10:59:52;;;;;;;3.45;1.30;;;25.30;91.00;;;;;;5051895;28;20059;-79
2022/11/10 11:02:30;;;;;;;5.45;1.40;;;25.40;92.90;;;;;;5052705;28;20031;-79
2022/11/10 11:05:16;;;;;;;3.65;1.50;;;25.30;90.40;;;;;;5071891;28;20024;-79
2022/11/10 11:07:54;;;;;;;3.50;1.17;;;25.20;84.60;;;;;;5064447;28;20216;-79
2022/11/10 11:10:32;;;;;;;3.77;1.10;;;25.00;85.40;;;;;;5047763;28;20037;-78
2022/11/10 11:13:21;;;;;;;4.05;1.05;;;24.80;87.70;;;;;;5028102;28;20184;-78
2022/11/10 11:16:06;;;;;;;2.90;0.90;;;24.50;82.90;;;;;;5048953;28;20091;-79
2022/11/10 11:18:34;;;;;;;5.85;1.15;;;24.20;87.20;;;;;;5067169;28;20059;-78
2022/11/10 11:21:12;;;;;;;2.13;1.20;;;24.00;90.90;;;;;;5050638;28;20044;-78
2022/11/10 11:24:42;;;;;;;3.37;0.90;;;24.00;90.90;;;;;;5040480;28;20032;-81
2022/11/10 11:27:10;;;;;;;2.95;1.15;;;24.10;87.60;;;;;;4961576;28;20542;-80
2022/11/10 11:30:01;;;;;;;2.78;1.10;;;24.10;90.70;;;;;;5043379;28;20039;-79
2022/11/10 11:33:08;;;;;;;3.08;1.17;;;24.00;85.20;;;;;;5055015;28;20024;-80
2022/11/10 11:35:43;;;;;;;4.13;1.10;;;23.80;85.30;;;;;;5059131;28;20102;-80
2022/11/10 11:38:15;;;;;;;2.27;0.97;;;23.60;88.70;;;;;;5036615;28;20399;-79
2022/11/10 11:40:48;;;;;;;2.92;1.20;;;23.50;87.90;;;;;;5076753;28;20367;-78
2022/11/10 11:43:26;;;;;;;3.15;1.05;;;23.40;87.20;;;;;;5050679;28;20032;-78
2022/11/10 11:46:08;;;;;;;4.00;1.20;;;23.30;87.90;;;;;;5054780;28;20035;-79
2022/11/10 11:48:58;;;;;;;3.10;1.30;;;23.40;85.60;;;;;;5052862;28;20020;-78
2022/11/10 11:51:32;;;;;;;3.37;1.30;;;23.50;89.10;;;;;;5085912;28;20480;-79
2022/11/10 11:54:13;;;;;;;3.28;1.20;;;23.60;90.10;;;;;;5043822;28;20057;-78
2022/11/10 11:56:46;;;;;;;2.75;1.10;;;23.60;85.70;;;;;;5065074;28;20039;-78
2022/11/10 11:59:27;;;;;;;2.85;1.00;;;23.50;89.40;;;;;;5053055;28;20540;-78
2022/11/10 12:02:22;;;;;;;3.03;1.00;;;23.50;86.80;;;;;;5054641;28;20029;-78
2022/11/10 12:05:06;;;;;;;2.27;1.10;;;23.70;89.50;;;;;;5049818;28;20028;-77
2022/11/10 12:07:44;;;;;;;5.55;1.30;;;23.90;90.00;;;;;;5071504;28;20012;-78
2022/11/10 12:10:51;;;;;;;2.53;1.13;;;24.10;90.00;;;;;;5072160;28;20313;-78
2022/11/10 12:13:45;;;;;;;3.33;1.10;;;24.30;86.30;;;;;;5051905;28;20466;-80
2022/11/10 12:16:33;;;;;;;2.97;1.13;;;24.50;82.30;;;;;;5073754;27;20246;-78
2022/11/10 12:19:02;;;;;;;2.43;0.90;;;24.50;85.10;;;;;;5059434;28;20576;-79
2022/11/10 12:21:48;;;;;;;1.58;0.90;;;24.50;85.30;;;;;;5069055;28;20021;-79
2022/11/10 12:24:41;;;;;;;2.20;1.00;;;24.40;86.90;;;;;;5054129;28;20677;-78
2022/11/10 12:27:19;;;;;;;5.47;1.20;;;24.30;83.60;;;;;;5059022;28;20063;-79
2022/11/10 12:29:51;;;;;;;4.53;1.10;;;24.10;81.30;;;;;;5061287;28;20024;-77
2022/11/10 12:32:27;;;;;;;2.80;0.90;;;24.00;86.20;;;;;;5071550;28;20058;-81
2022/11/10 12:35:25;;;;;;;2.78;1.10;;;24.00;82.20;;;;;;5059490;28;20107;-77
2022/11/10 12:38:01;;;;;;;3.25;0.98;;;24.00;81.00;;;;;;5068793;28;20064;-80
2022/11/10 12:40:37;;;;;;;2.25;0.82;;;24.00;83.40;;;;;;5068954;28;20042;-80
2022/11/10 12:43:10;;;;;;;2.83;1.05;;;24.10;85.20;;;;;;5058147;28;20120;-78
2022/11/10 12:45:52;;;;;;;2.30;1.10;;;24.20;87.00;;;;;;5039258;28;20028;-79
2022/11/10 12:48:18;;;;;;;2.30;0.98;;;24.40;85.00;;;;;;5077319;28;20038;-79
2022/11/10 12:51:06;;;;;;;2.25;1.05;;;24.50;88.10;;;;;;5064215;28;20021;-79
2022/11/10 12:53:39;;;;;;;1.65;0.90;;;24.50;81.20;;;;;;5071998;28;20425;-78
2022/11/10 12:56:16;;;;;;;2.33;0.95;;;24.50;80.60;;;;;;5058172;28;20020;-79
2022/11/10 12:58:42;;;;;;;2.60;0.87;;;24.40;80.00;;;;;;5066417;28;20491;-79
2022/11/10 13:01:18;;;;;;;3.88;1.10;;;24.20;83.00;;;;;;5048906;28;20233;-79
2022/11/10 13:03:57;;;;;;;3.00;0.90;;;24.00;79.10;;;;;;5076990;28;20102;-79
2022/11/10 13:06:31;;;;;;;4.40;0.90;;;23.70;78.50;;;;;;5059608;28;20069;-79
2022/11/10 13:08:58;;;;;;;2.47;0.98;;;23.60;80.50;;;;;;5048026;28;21131;-78
2022/11/10 13:11:30;;;;;;;2.70;0.90;;;23.50;83.80;;;;;;5048824;28;20027;-79
2022/11/10 13:13:57;;;;;;;2.70;0.80;;;23.50;83.90;;;;;;5062996;28;20108;-80